createdAt,value
2023-03-22T00:01:23.128Z,12.66
2023-03-22T00:03:51.619Z,12.67
2023-03-22T00:06:19.265Z,12.53
2023-03-22T00:08:50.444Z,12.40
2023-03-22T00:11:18.995Z,12.46
2023-03-22T00:13:47.052Z,12.48
2023-03-22T00:16:14.933Z,12.19
2023-03-22T00:18:41.831Z,12.20
2023-03-22T00:21:13.576Z,12.28
2023-03-22T00:23:41.198Z,12.10
2023-03-22T00:26:09.846Z,12.07
2023-03-22T00:28:38.601Z,12.15
2023-03-22T00:31:06.275Z,12.35
2023-03-22T00:33:34.225Z,12.33
2023-03-22T00:36:04.277Z,12.42
2023-03-22T00:38:42.662Z,12.40
2023-03-22T00:41:15.899Z,12.32
2023-03-22T00:43:45.679Z,12.35
2023-03-22T00:46:14.365Z,12.30
2023-03-22T00:48:41.837Z,12.27
2023-03-22T00:51:10.140Z,11.90
2023-03-22T00:53:42.402Z,12.26
2023-03-22T00:56:10.771Z,12.27
2023-03-22T00:58:44.254Z,12.18
2023-03-22T01:01:14.611Z,12.28
2023-03-22T01:03:43.405Z,12.17
2023-03-22T01:06:13.513Z,12.21
2023-03-22T01:08:40.529Z,12.23
2023-03-22T01:11:08.714Z,12.02
2023-03-22T01:13:41.569Z,12.00
2023-03-22T01:16:09.393Z,11.97
2023-03-22T01:18:36.744Z,12.31
2023-03-22T01:21:04.050Z,12.03
2023-03-22T01:23:31.269Z,12.21
2023-03-22T01:25:58.317Z,12.30
2023-03-22T01:28:27.064Z,12.23
2023-03-22T01:30:54.642Z,12.16
2023-03-22T01:33:22.129Z,12.19
2023-03-22T01:35:49.678Z,12.16
2023-03-22T01:38:16.764Z,12.03
2023-03-22T01:40:52.086Z,12.03
2023-03-22T01:43:19.076Z,12.03
2023-03-22T01:45:51.550Z,11.98
2023-03-22T01:48:28.041Z,11.89
2023-03-22T01:51:15.246Z,11.85
2023-03-22T01:54:18.226Z,11.89
2023-03-22T01:56:47.007Z,11.77
2023-03-22T01:59:21.273Z,11.78
2023-03-22T02:02:03.322Z,11.92
2023-03-22T02:04:34.355Z,11.81
2023-03-22T02:07:10.411Z,11.70
2023-03-22T02:09:42.856Z,11.66
2023-03-22T02:12:30.880Z,11.72
2023-03-22T02:15:12.776Z,11.81
2023-03-22T02:18:27.685Z,11.76
2023-03-22T02:21:41.050Z,11.66
2023-03-22T02:24:23.460Z,11.88
2023-03-22T02:27:15.963Z,11.78
2023-03-22T02:29:50.018Z,11.87
2023-03-22T02:32:27.669Z,11.82
2023-03-22T02:35:32.148Z,11.87
2023-03-22T02:38:36.724Z,11.80
2023-03-22T02:41:15.620Z,11.78
2023-03-22T02:44:08.193Z,11.65
2023-03-22T02:46:43.294Z,11.83
2023-03-22T02:49:32.407Z,11.76
2023-03-22T02:52:04.371Z,11.77
2023-03-22T02:54:38.129Z,11.88
2023-03-22T02:57:11.478Z,11.88
2023-03-22T02:59:41.749Z,11.97
2023-03-22T03:02:13.230Z,11.72
2023-03-22T03:04:46.833Z,11.62
2023-03-22T03:07:17.903Z,11.75
2023-03-22T03:09:45.660Z,11.71
2023-03-22T03:12:21.663Z,11.59
2023-03-22T03:14:48.425Z,11.60
2023-03-22T03:17:36.915Z,11.68
2023-03-22T03:20:34.349Z,11.75
2023-03-22T03:23:33.179Z,11.81
2023-03-22T03:26:12.329Z,11.71
2023-03-22T03:28:49.733Z,11.74
2023-03-22T03:31:25.793Z,11.75
2023-03-22T03:34:05.914Z,11.72
2023-03-22T03:36:37.706Z,11.64
2023-03-22T03:39:10.721Z,11.66
2023-03-22T03:41:38.958Z,11.75
2023-03-22T03:44:06.785Z,11.82
2023-03-22T03:46:33.579Z,11.89
2023-03-22T03:49:04.135Z,11.76
2023-03-22T03:51:33.208Z,11.74
2023-03-22T03:53:59.893Z,11.58
2023-03-22T03:56:26.694Z,11.56
2023-03-22T03:58:54.613Z,11.66
2023-03-22T04:01:21.374Z,11.59
2023-03-22T04:03:58.049Z,11.71
2023-03-22T04:06:34.647Z,11.61
2023-03-22T04:09:07.894Z,11.58
2023-03-22T04:11:39.573Z,11.53
2023-03-22T04:14:06.579Z,11.32
2023-03-22T04:16:33.366Z,11.41
2023-03-22T04:19:00.681Z,11.38
2023-03-22T04:21:27.609Z,11.20
2023-03-22T04:23:59.806Z,11.25
2023-03-22T04:26:29.556Z,11.15
2023-03-22T04:29:32.081Z,11.02
2023-03-22T04:32:10.573Z,11.07
2023-03-22T04:34:42.846Z,11.04
2023-03-22T04:37:12.869Z,11.06
2023-03-22T04:39:54.162Z,10.93
2023-03-22T04:42:37.040Z,10.94
2023-03-22T04:45:14.355Z,10.80
2023-03-22T04:47:44.202Z,10.83
2023-03-22T04:50:11.916Z,10.81
2023-03-22T04:52:49.829Z,10.90
2023-03-22T04:55:16.867Z,10.79
2023-03-22T04:57:44.780Z,10.82
2023-03-22T05:00:12.421Z,10.80
2023-03-22T05:02:41.423Z,10.82
2023-03-22T05:05:15.270Z,10.72
2023-03-22T05:07:43.889Z,10.70
2023-03-22T05:10:10.747Z,10.68
2023-03-22T05:12:37.695Z,10.61
2023-03-22T05:15:17.824Z,10.72
2023-03-22T05:17:45.946Z,10.55
2023-03-22T05:20:13.528Z,10.55
2023-03-22T05:22:42.194Z,10.59
2023-03-22T05:25:11.545Z,10.51
2023-03-22T05:27:41.399Z,10.36
2023-03-22T05:30:32.155Z,10.52
2023-03-22T05:33:05.032Z,10.34
2023-03-22T05:35:38.879Z,10.25
2023-03-22T05:38:07.453Z,10.32
2023-03-22T05:40:36.679Z,10.26
2023-03-22T05:43:03.417Z,10.21
2023-03-22T05:45:32.439Z,10.14
2023-03-22T05:48:13.207Z,10.24
2023-03-22T05:50:40.937Z,10.07
2023-03-22T05:53:08.355Z,10.22
2023-03-22T05:56:00.620Z,10.09
2023-03-22T05:58:30.638Z,10.19
2023-03-22T06:01:04.081Z,10.33
2023-03-22T06:04:02.980Z,10.23
2023-03-22T06:06:47.038Z,10.11
2023-03-22T06:09:29.651Z,10.33
2023-03-22T06:11:56.398Z,10.33
2023-03-22T06:14:23.457Z,10.34
2023-03-22T06:17:03.383Z,10.17
2023-03-22T06:19:31.226Z,10.28
2023-03-22T06:22:01.745Z,10.24
2023-03-22T06:24:28.502Z,10.04
2023-03-22T06:26:55.547Z,10.09
2023-03-22T06:29:22.275Z,10.19
2023-03-22T06:31:51.985Z,10.10
2023-03-22T06:34:18.647Z,10.23
2023-03-22T06:36:47.134Z,10.27
2023-03-22T06:39:20.349Z,10.59
2023-03-22T06:41:48.574Z,10.95
2023-03-22T06:44:16.022Z,11.01
2023-03-22T06:46:51.826Z,11.17
2023-03-22T06:49:54.286Z,11.29
2023-03-22T06:52:25.479Z,11.38
2023-03-22T06:54:52.589Z,11.54
2023-03-22T06:57:19.711Z,11.59
2023-03-22T06:59:46.495Z,11.57
2023-03-22T07:02:13.617Z,11.53
2023-03-22T07:04:46.498Z,11.53
2023-03-22T07:07:13.716Z,11.66
2023-03-22T07:09:40.920Z,11.51
2023-03-22T07:12:07.978Z,11.69
2023-03-22T07:14:35.224Z,11.81
2023-03-22T07:17:14.171Z,12.16
2023-03-22T07:19:42.628Z,12.25
2023-03-22T07:22:11.044Z,12.06
2023-03-22T07:24:47.292Z,12.30
2023-03-22T07:27:21.708Z,12.51
2023-03-22T07:29:49.417Z,12.65
2023-03-22T07:32:16.896Z,12.49
2023-03-22T07:34:55.830Z,13.02
2023-03-22T07:37:24.292Z,12.91
2023-03-22T07:39:51.156Z,13.26
2023-03-22T07:42:17.960Z,13.69
2023-03-22T07:45:04.614Z,13.41
2023-03-22T07:47:51.436Z,13.86
2023-03-22T07:50:18.613Z,14.01
2023-03-22T07:52:48.965Z,13.50
2023-03-22T07:55:16.019Z,13.12
2023-03-22T07:57:43.118Z,13.10
2023-03-22T08:00:13.218Z,12.97
2023-03-22T08:02:46.616Z,12.88
2023-03-22T08:05:29.467Z,13.06
2023-03-22T08:08:01.238Z,13.16
2023-03-22T08:10:28.040Z,13.69
2023-03-22T08:12:55.352Z,13.49
2023-03-22T08:15:25.553Z,14.41
2023-03-22T08:17:53.177Z,14.57
2023-03-22T08:20:31.780Z,14.32
2023-03-22T08:23:02.221Z,14.08
2023-03-22T08:25:59.936Z,14.21
2023-03-22T08:28:26.738Z,13.73
2023-03-22T08:30:53.925Z,14.62
2023-03-22T08:33:23.722Z,15.36
2023-03-22T08:35:51.268Z,15.55
2023-03-22T08:38:19.600Z,15.66
2023-03-22T08:40:50.260Z,15.82
2023-03-22T08:43:21.650Z,14.88
2023-03-22T08:45:48.705Z,15.23
2023-03-22T08:48:16.996Z,14.85
2023-03-22T08:51:06.294Z,14.63
2023-03-22T08:53:48.839Z,14.66
2023-03-22T08:56:38.145Z,14.68
2023-03-22T08:59:21.954Z,14.41
2023-03-22T09:02:27.739Z,14.21
2023-03-22T09:04:56.434Z,14.22
2023-03-22T09:07:24.284Z,14.36
2023-03-22T09:10:20.450Z,14.27
2023-03-22T09:12:49.212Z,14.20
2023-03-22T09:15:16.492Z,14.50
2023-03-22T09:17:46.908Z,14.79
2023-03-22T09:20:14.279Z,14.69
2023-03-22T09:22:43.881Z,14.83
2023-03-22T09:25:13.450Z,15.60
2023-03-22T09:27:43.489Z,15.17
2023-03-22T09:30:11.196Z,15.61
2023-03-22T09:32:40.185Z,15.38
2023-03-22T09:35:07.407Z,15.05
2023-03-22T09:37:45.510Z,15.29
2023-03-22T09:40:13.415Z,15.08
2023-03-22T09:42:45.011Z,15.26
2023-03-22T09:45:18.900Z,15.15
2023-03-22T09:47:53.267Z,15.17
2023-03-22T09:50:30.058Z,15.30
2023-03-22T09:52:58.525Z,15.31
2023-03-22T09:55:43.475Z,15.04
2023-03-22T09:58:47.517Z,14.99
2023-03-22T10:01:26.652Z,14.87
2023-03-22T10:04:27.978Z,14.97
2023-03-22T10:07:07.137Z,14.87
2023-03-22T10:10:03.461Z,14.77
2023-03-22T10:12:33.944Z,14.73
2023-03-22T10:15:14.915Z,14.85
2023-03-22T10:17:50.799Z,15.23
2023-03-22T10:20:42.309Z,15.17
2023-03-22T10:23:18.011Z,15.44
2023-03-22T10:25:44.897Z,15.26
2023-03-22T10:28:16.892Z,15.86
2023-03-22T10:30:45.947Z,16.26
2023-03-22T10:33:19.207Z,16.24
2023-03-22T10:35:46.599Z,16.64
2023-03-22T10:38:22.632Z,16.18
2023-03-22T10:40:50.518Z,16.63
2023-03-22T10:43:25.845Z,16.83
2023-03-22T10:45:54.162Z,16.49
2023-03-22T10:48:30.283Z,16.53
2023-03-22T10:50:59.302Z,16.46
2023-03-22T10:53:38.426Z,16.32
2023-03-22T10:56:11.291Z,16.36
2023-03-22T10:58:38.399Z,16.45
2023-03-22T11:01:08.623Z,16.39
2023-03-22T11:03:35.349Z,16.37
2023-03-22T11:06:15.076Z,16.35
2023-03-22T11:08:50.438Z,16.53
2023-03-22T11:11:21.900Z,16.56
2023-03-22T11:13:54.708Z,16.97
2023-03-22T11:16:22.618Z,16.72
2023-03-22T11:18:49.443Z,16.84
2023-03-22T11:21:17.992Z,16.79
2023-03-22T11:24:05.481Z,16.84
2023-03-22T11:26:39.032Z,16.81
2023-03-22T11:29:18.775Z,17.16
2023-03-22T11:32:00.241Z,17.13
2023-03-22T11:34:30.757Z,17.44
2023-03-22T11:37:01.057Z,17.28
2023-03-22T11:39:29.448Z,17.21
2023-03-22T11:42:03.790Z,17.49
2023-03-22T11:44:37.740Z,17.38
2023-03-22T11:47:07.527Z,17.14
2023-03-22T11:49:46.293Z,17.44
2023-03-22T11:52:23.099Z,17.33
2023-03-22T11:54:51.047Z,17.70
2023-03-22T11:57:23.400Z,17.45
2023-03-22T11:59:59.864Z,17.34
2023-03-22T12:02:33.160Z,17.51
2023-03-22T12:05:07.415Z,17.76
2023-03-22T12:07:36.106Z,17.61
2023-03-22T12:10:22.902Z,17.90
2023-03-22T12:12:56.095Z,17.68
2023-03-22T12:15:27.572Z,17.78
2023-03-22T12:18:08.135Z,17.74
2023-03-22T12:20:35.283Z,17.92
2023-03-22T12:23:09.258Z,18.02
2023-03-22T12:25:37.953Z,17.74
2023-03-22T12:28:17.779Z,17.93
2023-03-22T12:30:52.069Z,17.80
2023-03-22T12:33:24.585Z,17.78
2023-03-22T12:35:55.808Z,17.98
2023-03-22T12:38:29.681Z,17.91
2023-03-22T12:41:00.649Z,17.82
2023-03-22T12:44:16.629Z,17.92
2023-03-22T12:47:06.567Z,17.94
2023-03-22T12:49:44.018Z,17.98
2023-03-22T12:52:23.309Z,18.11
2023-03-22T12:54:52.609Z,18.05
2023-03-22T12:57:19.564Z,18.13
2023-03-22T12:59:51.519Z,18.16
2023-03-22T13:02:32.166Z,17.98
2023-03-22T13:05:02.077Z,18.03
2023-03-22T13:07:39.469Z,17.97
2023-03-22T13:10:29.121Z,17.98
2023-03-22T13:13:14.578Z,18.02
2023-03-22T13:16:13.500Z,18.02
2023-03-22T13:18:43.227Z,17.84
2023-03-22T13:21:16.363Z,17.90
2023-03-22T13:24:04.540Z,18.14
2023-03-22T13:26:37.440Z,18.14
2023-03-22T13:29:24.331Z,18.13
2023-03-22T13:31:51.047Z,17.95
2023-03-22T13:34:31.802Z,17.98
2023-03-22T13:37:01.662Z,18.03
2023-03-22T13:39:34.593Z,18.19
2023-03-22T13:42:38.116Z,18.23
2023-03-22T13:45:08.933Z,18.06
2023-03-22T13:47:45.804Z,18.07
2023-03-22T13:50:27.112Z,17.93
2023-03-22T13:53:05.826Z,18.03
2023-03-22T13:55:37.997Z,17.97
2023-03-22T13:58:10.037Z,18.14
2023-03-22T14:00:40.617Z,18.20
2023-03-22T14:03:17.648Z,18.30
2023-03-22T14:05:47.259Z,18.26
2023-03-22T14:08:23.306Z,18.23
2023-03-22T14:10:59.978Z,18.53
2023-03-22T14:13:36.789Z,18.55
2023-03-22T14:16:14.020Z,18.50
2023-03-22T14:18:46.238Z,18.56
2023-03-22T14:21:17.969Z,18.75
